Albany, New York
Traffic Map
Current Weather Conditions
Albany, New York
Broken Clouds
Broken Clouds
64°
Feels Like: 64°
Wind Chill: 64° Ceiling: 3100
Heat Index: 64° Visibility: 10mi
Dew Point: 58° Wind: 5mph
Humidity: 80% Direction: 300° (WNW)
Pressure: 29.91in Gusts: 0mph
Raw Report DataKALB 280651Z 30004KT 10SM BKN031 BKN043 18/14 A2991 RMK AO2 SLP125 T01780144
Traffic Incident Summary
Active as of:
Severity:
Category:
InformationThere was an issue retrieving the traffic information for this location. Please try a different location or try again shortly.
Advertisements
Track Severe Weather on mobile